デンバー の空港の天気 - METARとTAF

デンバー国際空港 ( KDEN / DEN ) - アメリカ コロラド州デンバー
飛行場実況気象(Metar)
観測時間02/17 15:53 MST (02/17 22:53 UTC)
風向・風速東北東 7m/s
視程10km以上
天気現象
全天の4割程度の雲 雲底高度 940m
全天の8割程度の雲 雲底高度 4270m
全天の8割程度の雲 雲底高度 6710m
気温-3.3℃
湿度63%
気圧1014.4hPa
METARKDEN 172253Z 07014KT 10SM SCT031 BKN140 BKN220 M03/M09 A2987 RMK AO2 SLP144 T10331094
過去の天気等 Google飛行場航空写真 Wunderground天気予報

過去48時間のMETAR

飛行場予報(TAF)
発表時間: 2/17 13:48 MST (2/17 20:48 UTC)
予報対象時間: 17日14時 MST ~ 18日17時 MST
風向・風速東 7m/s 瞬間風速 11m/s
視程10km以上
全天の4割程度の雲 雲底高度 760m
全天の8割程度の雲 雲底高度 2440m
17日16時 MST から
風向・風速東 7m/s 瞬間風速 10m/s
視程10km以上
全天の8割程度の雲 雲底高度 760m
全天の8割程度の雲 雲底高度 1830m
17日20時 MST から
風向・風速東北東 6m/s
視程10km以上
全天を覆う雲 雲底高度 610m
17日20時 MST ~ 17日23時 MST に一時的に
視程3220m
天気現象弱い雪 もや
全天を覆う雲 雲底高度 460m
17日23時 MST から
風向・風速東 5m/s
視程3220m
天気現象弱い雪 もや
全天を覆う雲 雲底高度 300m
18日9時 MST から
風向・風速南東 7m/s
視程10km以上
全天の4割程度の雲 雲底高度 370m
全天の8割程度の雲 雲底高度 760m
KDEN 172048Z 1721/1824 08014G21KT P6SM SCT025 BKN080
FM172300 08013G20KT P6SM BKN025 BKN060
FM180300 07011KT P6SM OVC020
TEMPO 1803/1806 2SM -SN BR OVC015
FM180600 09009KT 2SM -SN BR OVC010
FM181600 13013KT P6SM SCT012 BKN025